NCAR-RAP Real-Time Weather Data

Output produced by METARs form (06 May 2021  16:42 UTC)
found at http://weather.rap.ucar.edu/surface/
 
KLWC 061601Z AUTO 33015KT 10SM BKN024 13/07 A3031 RMK AO1 T01280067
KLWC 061552Z AUTO 33015KT 10SM SCT023 12/06 A3030 RMK AO1 SLP261 T01170061
KLWC 061520Z AUTO 36016G24KT 10SM SCT020 11/06 A3030 RMK AO1 T01110061
KLWC 061452Z AUTO 33016KT 10SM OVC018 11/07 A3030 RMK AO1 SLP259 T01060067 51034
KLWC 061407Z AUTO 33014KT 8SM OVC015 12/08 A3028 RMK AO1 T01170083
KLWC 061352Z AUTO 34011G19KT 8SM BKN014 OVC020 12/08 A3027 RMK AO1 SLP249 T01170083
KLWC 061344Z AUTO 33014KT 7SM OVC014 12/08 A3026 RMK AO1 T01170083
KLWC 061309Z AUTO 33014KT 7SM BKN015 BKN120 10/08 A3025 RMK AO1 T01000078
KLWC 061252Z AUTO 33014G20KT 9SM FEW015 BKN120 11/08 A3024 RMK AO1 SLP237 T01060083
KLWC 061152Z AUTO 32008KT 10SM CLR 09/08 A3019 RMK AO1 SLP222 70006 T00940078 10117 20072 53023
KLWC 061052Z AUTO 31009KT 10SM CLR 09/08 A3016 RMK AO1 SLP209 T00940078
KLWC 060952Z AUTO 32006KT 10SM CLR 08/07 A3013 RMK AO1 SLP200 T00780067
KLWC 060852Z AUTO 32004KT 10SM CLR 07/07 A3012 RMK AO1 SLP200 T00720072 56004
KLWC 060843Z AUTO 31003KT 3SM BR CLR 07/07 A3013 RMK AO1 T00720072
KLWC 060833Z AUTO 33004KT 1 1/2SM BR CLR 08/08 A3013 RMK AO1 T00830078
KLWC 060752Z AUTO 33003KT 10SM CLR 09/08 A3013 RMK AO1 SLP199 T00890078
KLWC 060652Z AUTO 20003KT 10SM CLR 11/09 A3013 RMK AO1 SLP199 T01060094
KLWC 060552Z AUTO 16010KT 10SM FEW055 SCT070 SCT080 12/10 A3014 RMK AO1 RAE48 SLP202 P0004 60006 T01170100 10200 20117 402170006 50007
KLWC 060452Z AUTO 36012G22KT 6SM +RA BKN070 OVC085 14/07 A3018 RMK AO1 RAB50 SLP215 P0002 T01390067
KLWC 060437Z AUTO 10SM VCTS BKN085 14/06 A3016 RMK AO1 PRESRR T01440056
KLWC 060352Z AUTO 23006KT 10SM CLR 16/03 A3012 RMK AO1 LTG DSNT N AND NW SLP197 T01610033
KLWC 060252Z AUTO 19006KT 10SM OVC100 15/04 A3011 RMK AO1 SLP195 T01500039 53006
KLWC 060152Z AUTO 15006KT 10SM SCT110 14/05 A3009 RMK AO1 SLP190 T01440050